Airfield :







YOU CAN JOIN US ON...

 
LOGIN :

Register | Disclaimer

   EN    FR    IT 

 









Legend :    VFR   Marginal VFR   IFR   Intensive IFR   Very Intensive IFR
Visi :
Ceiling :
>= 8 km
>= 3000ft
5 to 8 km
1000 to 3000 ft
1500m to 5 km
500 to 1000 ft
800 to 1500m
200 to 500 ft
< 800m
< 200 ft
Symbols :   Thunderstorms  Fog  Heavy snow  Heavy precipitations  Wind > 20 kt






- Airport Elevation : 170 ft
- IATA code : SKB


TKPK - Bradshaw Int.

CURRENT METAR :
  • 212000Z 09008KT 9999 FEW020 27/21 Q1013

EXPIRED METARs :
  • 211900Z 09014KT 9999 FEW016 27/21 Q1014
  • 211800Z 07011KT 9999 FEW016 27/21 Q1014

TAF TKPK
Valid from the 21 at 18:00 until the 22 at 18:00 UTC


211738Z 2118/2218 08015KT P6SM VCSH SCT018 BKN045
FM212200 07009KT P6SM VCSH FEW018 SCT030
FM221000 08012KT P6SM VCSH FEW018 SCT030 AMD NOT SKED 2202/2211



MET'MAP, your aeronautical weather chart ! - Copyright ORBIFLY December 2007 - Disclaimer

ORBIFLY MET'MAP TEAM :

Programming & Development : Alexandra Zaïnal
Concept & original design : Baudouin d'Aumeries
Assistance for programming : Marc-Olivier Méhu
Technical & hardware support : Manuel Goepfert

Contact : metmap@orbifly.com




SOURCES & CREDITS :

   NOAA